createdAt,value
2023-05-05T00:00:29.268Z,45
2023-05-05T00:01:42.244Z,45
2023-05-05T00:02:55.279Z,45
2023-05-05T00:04:08.444Z,45
2023-05-05T00:05:21.213Z,45
2023-05-05T00:06:34.278Z,45
2023-05-05T00:07:47.266Z,45
2023-05-05T00:09:00.268Z,45
2023-05-05T00:10:13.270Z,46
2023-05-05T00:11:26.321Z,46
2023-05-05T00:12:39.342Z,46
2023-05-05T00:13:52.241Z,46
2023-05-05T00:15:05.254Z,46
2023-05-05T00:16:18.242Z,46
2023-05-05T00:17:31.402Z,46
2023-05-05T00:18:44.244Z,46
2023-05-05T00:19:57.235Z,46
2023-05-05T00:21:10.251Z,46
2023-05-05T00:22:23.292Z,46
2023-05-05T00:23:36.306Z,46
2023-05-05T00:24:49.239Z,46
2023-05-05T00:26:02.242Z,46
2023-05-05T00:27:15.252Z,46
2023-05-05T00:28:28.222Z,46
2023-05-05T00:29:41.276Z,46
2023-05-05T00:30:54.258Z,46
2023-05-05T00:32:07.441Z,46
2023-05-05T00:33:20.341Z,46
2023-05-05T00:34:33.335Z,46
2023-05-05T00:35:46.362Z,46
2023-05-05T00:36:59.269Z,46
2023-05-05T00:38:12.626Z,46
2023-05-05T00:39:25.431Z,46
2023-05-05T00:40:38.139Z,46
2023-05-05T00:41:51.118Z,46
2023-05-05T00:43:04.259Z,47
2023-05-05T00:44:17.359Z,47
2023-05-05T00:45:30.224Z,47
2023-05-05T00:46:43.362Z,47
2023-05-05T00:47:56.272Z,48
2023-05-05T00:49:09.266Z,48
2023-05-05T00:50:22.238Z,48
2023-05-05T00:51:35.395Z,48
2023-05-05T00:52:48.218Z,48
2023-05-05T00:54:01.211Z,48
2023-05-05T00:55:14.269Z,48
2023-05-05T00:56:27.260Z,48
2023-05-05T00:57:40.219Z,48
2023-05-05T00:58:53.224Z,48
2023-05-05T01:00:06.547Z,48
2023-05-05T01:01:19.319Z,48
2023-05-05T01:02:32.399Z,48
2023-05-05T01:03:45.467Z,48
2023-05-05T01:04:58.071Z,48
2023-05-05T01:06:11.242Z,48
2023-05-05T01:07:24.242Z,48
2023-05-05T01:08:37.277Z,48
2023-05-05T01:10:00.992Z,48
2023-05-05T01:11:03.346Z,48
2023-05-05T01:12:16.394Z,48
2023-05-05T01:13:29.570Z,48
2023-05-05T01:14:42.225Z,48
2023-05-05T01:15:55.257Z,48
2023-05-05T01:17:08.261Z,48
2023-05-05T01:18:21.217Z,48
2023-05-05T01:19:34.291Z,49
2023-05-05T01:20:47.216Z,49
2023-05-05T01:21:59.581Z,49
2023-05-05T01:23:13.242Z,49
2023-05-05T01:24:26.252Z,49
2023-05-05T01:25:39.199Z,49
2023-05-05T01:26:52.368Z,49
2023-05-05T01:28:05.280Z,49
2023-05-05T01:29:18.231Z,49
2023-05-05T01:30:31.254Z,49
2023-05-05T01:31:44.380Z,50
2023-05-05T01:32:57.136Z,50
2023-05-05T01:34:10.216Z,50
2023-05-05T01:35:23.240Z,50
2023-05-05T01:36:36.254Z,50
2023-05-05T01:37:49.214Z,50
2023-05-05T01:39:02.239Z,50
2023-05-05T01:40:15.216Z,50
2023-05-05T01:41:28.214Z,49
2023-05-05T01:42:41.196Z,50
2023-05-05T01:43:54.097Z,50
2023-05-05T01:45:07.248Z,50
2023-05-05T01:46:20.321Z,50
2023-05-05T01:47:33.206Z,50
2023-05-05T01:48:46.276Z,50
2023-05-05T01:49:59.190Z,50
2023-05-05T01:51:12.238Z,50
2023-05-05T01:52:25.278Z,50
2023-05-05T01:53:38.228Z,51
2023-05-05T01:54:51.249Z,51
2023-05-05T01:56:04.155Z,50
2023-05-05T01:57:17.163Z,50
2023-05-05T01:58:30.201Z,51
2023-05-05T01:59:43.253Z,51
2023-05-05T02:00:56.251Z,51
2023-05-05T02:02:09.218Z,51
2023-05-05T02:03:22.272Z,51
2023-05-05T02:04:35.215Z,51
2023-05-05T02:05:48.361Z,51
2023-05-05T02:07:01.210Z,51
2023-05-05T02:08:14.265Z,51
2023-05-05T02:09:27.280Z,51
2023-05-05T02:10:40.236Z,52
2023-05-05T02:11:53.213Z,52
2023-05-05T02:13:06.296Z,52
2023-05-05T02:14:19.201Z,52
2023-05-05T02:15:32.217Z,52
2023-05-05T02:16:45.250Z,52
2023-05-05T02:17:58.207Z,52
2023-05-05T02:19:11.221Z,53
2023-05-05T02:20:24.235Z,53
2023-05-05T02:21:37.306Z,53
2023-05-05T02:22:50.217Z,53
2023-05-05T02:24:03.317Z,53
2023-05-05T02:25:16.260Z,53
2023-05-05T02:26:29.216Z,54
2023-05-05T02:27:42.246Z,54
2023-05-05T02:28:55.250Z,54
2023-05-05T02:30:08.368Z,54
2023-05-05T02:31:21.293Z,54
2023-05-05T02:32:34.317Z,54
2023-05-05T02:33:47.105Z,55
2023-05-05T02:35:00.256Z,55
2023-05-05T02:36:13.269Z,55
2023-05-05T02:37:26.218Z,55
2023-05-05T02:38:39.271Z,55
2023-05-05T02:39:52.392Z,55
2023-05-05T02:41:05.274Z,55
2023-05-05T02:42:18.341Z,55
2023-05-05T02:43:31.322Z,56
2023-05-05T02:44:44.245Z,56
2023-05-05T02:45:57.238Z,56
2023-05-05T02:47:10.078Z,56
2023-05-05T02:48:23.230Z,56
2023-05-05T02:49:36.242Z,56
2023-05-05T02:50:49.218Z,56
2023-05-05T02:52:02.319Z,57
2023-05-05T02:53:15.605Z,57
2023-05-05T02:54:28.213Z,57
2023-05-05T02:55:41.344Z,57
2023-05-05T02:56:54.257Z,57
2023-05-05T02:58:07.247Z,57
2023-05-05T02:59:20.696Z,57
2023-05-05T03:00:33.382Z,58
2023-05-05T03:01:46.214Z,58
2023-05-05T03:02:59.275Z,58
2023-05-05T03:04:12.245Z,58
2023-05-05T03:05:25.366Z,58
2023-05-05T03:06:38.279Z,58
2023-05-05T03:07:51.230Z,58
2023-05-05T03:09:04.280Z,58
2023-05-05T03:10:17.205Z,58
2023-05-05T03:11:30.256Z,59
2023-05-05T03:12:43.141Z,58
2023-05-05T03:13:56.333Z,58
2023-05-05T03:15:09.247Z,58
2023-05-05T03:16:22.253Z,59
2023-05-05T03:17:35.243Z,58
2023-05-05T03:18:48.203Z,58
2023-05-05T03:20:04.221Z,58
2023-05-05T03:21:14.213Z,58
2023-05-05T03:22:27.249Z,58
2023-05-05T03:23:40.223Z,58
2023-05-05T03:24:53.209Z,58
2023-05-05T03:26:06.243Z,58
2023-05-05T03:27:19.212Z,58
2023-05-05T03:28:32.267Z,58
2023-05-05T03:29:45.200Z,58
2023-05-05T03:30:58.192Z,58
2023-05-05T03:32:11.264Z,58
2023-05-05T03:33:24.214Z,58
2023-05-05T03:34:37.270Z,58
2023-05-05T03:35:50.250Z,58
2023-05-05T03:37:03.239Z,58
2023-05-05T03:38:16.259Z,58
2023-05-05T03:39:29.231Z,58
2023-05-05T03:40:45.326Z,59
2023-05-05T03:41:55.228Z,59
2023-05-05T03:43:08.273Z,59
2023-05-05T03:44:21.219Z,59
2023-05-05T03:45:34.429Z,59
2023-05-05T03:46:47.264Z,59
2023-05-05T03:48:00.244Z,60
2023-05-05T03:49:12.986Z,59
2023-05-05T03:50:26.190Z,60
2023-05-05T03:51:39.227Z,60
2023-05-05T03:52:52.322Z,61
2023-05-05T03:54:05.505Z,61
2023-05-05T03:55:18.223Z,61
2023-05-05T03:56:31.235Z,61
2023-05-05T03:57:44.208Z,60
2023-05-05T03:58:57.353Z,61
2023-05-05T04:00:10.246Z,61
2023-05-05T04:01:23.261Z,61
2023-05-05T04:02:36.243Z,61
2023-05-05T04:03:49.262Z,62
2023-05-05T04:05:02.268Z,62
2023-05-05T04:06:15.406Z,62
2023-05-05T04:07:28.209Z,62
2023-05-05T04:08:41.270Z,61
2023-05-05T04:09:54.288Z,62
2023-05-05T04:11:07.211Z,62
2023-05-05T04:12:20.304Z,62
2023-05-05T04:13:33.231Z,62
2023-05-05T04:14:46.216Z,62
2023-05-05T04:15:59.286Z,62
2023-05-05T04:17:12.223Z,62
2023-05-05T04:18:25.225Z,62
2023-05-05T04:19:38.286Z,62
2023-05-05T04:20:50.980Z,63
2023-05-05T04:22:04.233Z,63
2023-05-05T04:23:17.210Z,63
2023-05-05T04:24:30.229Z,63
2023-05-05T04:25:43.404Z,63
2023-05-05T04:26:56.200Z,63
2023-05-05T04:28:09.233Z,64
2023-05-05T04:29:22.358Z,64
2023-05-05T04:30:35.261Z,64
2023-05-05T04:31:48.417Z,64
2023-05-05T04:33:01.288Z,64
2023-05-05T04:34:14.225Z,64
2023-05-05T04:35:27.203Z,64
2023-05-05T04:36:40.221Z,64
2023-05-05T04:37:53.606Z,64
2023-05-05T04:39:06.293Z,64
2023-05-05T04:40:19.181Z,64
2023-05-05T04:41:32.217Z,64
2023-05-05T04:42:45.216Z,64
2023-05-05T04:43:58.209Z,64
2023-05-05T04:45:11.240Z,64
2023-05-05T04:46:24.264Z,65
2023-05-05T04:47:37.260Z,64
2023-05-05T04:48:50.274Z,64
2023-05-05T04:50:03.286Z,64
2023-05-05T04:51:16.231Z,65
2023-05-05T04:52:29.406Z,65
2023-05-05T04:53:42.230Z,64
2023-05-05T04:54:55.213Z,64
2023-05-05T04:56:08.399Z,64
2023-05-05T04:57:21.249Z,64
2023-05-05T04:58:34.240Z,64
2023-05-05T04:59:47.294Z,64
2023-05-05T05:01:00.300Z,64
2023-05-05T05:02:13.292Z,64
2023-05-05T05:03:26.401Z,64
2023-05-05T05:04:39.206Z,64
2023-05-05T05:05:52.219Z,64
2023-05-05T05:07:05.214Z,64
2023-05-05T05:08:18.273Z,64
2023-05-05T05:09:31.369Z,64
2023-05-05T05:10:44.246Z,64
2023-05-05T05:11:57.237Z,64
2023-05-05T05:13:13.386Z,65
2023-05-05T05:14:23.216Z,65
2023-05-05T05:15:36.353Z,65
2023-05-05T05:16:49.266Z,65
2023-05-05T05:18:02.299Z,65
2023-05-05T05:19:15.276Z,65
2023-05-05T05:20:28.223Z,65
2023-05-05T05:21:41.211Z,65
2023-05-05T05:22:54.228Z,66
2023-05-05T05:24:07.539Z,66
2023-05-05T05:25:20.268Z,66
2023-05-05T05:26:33.226Z,66
2023-05-05T05:27:52.446Z,66
2023-05-05T05:28:59.212Z,66
2023-05-05T05:30:12.276Z,66
2023-05-05T05:31:25.402Z,66
2023-05-05T05:32:38.020Z,66
2023-05-05T05:33:51.212Z,66
2023-05-05T05:35:04.385Z,66
2023-05-05T05:36:17.253Z,66
2023-05-05T05:37:30.247Z,66
2023-05-05T05:38:43.280Z,66
2023-05-05T05:39:56.272Z,66
2023-05-05T05:41:09.269Z,66
2023-05-05T05:42:22.223Z,65
2023-05-05T05:43:35.207Z,65
2023-05-05T05:44:48.214Z,65
2023-05-05T05:46:01.278Z,64
2023-05-05T05:47:14.252Z,65
2023-05-05T05:48:27.372Z,65
2023-05-05T05:49:40.276Z,65
2023-05-05T05:50:53.219Z,64
2023-05-05T05:52:06.235Z,65
2023-05-05T05:53:19.277Z,65
2023-05-05T05:54:32.386Z,65
2023-05-05T05:55:45.223Z,65
2023-05-05T05:56:58.193Z,65
2023-05-05T05:58:11.228Z,65
2023-05-05T05:59:24.076Z,65
2023-05-05T06:00:37.226Z,65
2023-05-05T06:01:50.229Z,65
2023-05-05T06:03:03.453Z,65
2023-05-05T06:04:16.224Z,65
2023-05-05T06:05:29.213Z,65
2023-05-05T06:06:42.211Z,64
2023-05-05T06:07:55.211Z,64
2023-05-05T06:09:08.273Z,64
2023-05-05T06:10:27.037Z,64
2023-05-05T06:11:34.212Z,65
2023-05-05T06:12:47.342Z,64
2023-05-05T06:14:00.208Z,64
2023-05-05T06:15:13.241Z,64
2023-05-05T06:16:26.355Z,64
2023-05-05T06:17:39.213Z,64
2023-05-05T06:18:52.222Z,65
2023-05-05T06:20:05.245Z,64
2023-05-05T06:21:18.245Z,64
2023-05-05T06:22:31.306Z,63
2023-05-05T06:23:44.320Z,63
2023-05-05T06:24:57.210Z,63
2023-05-05T06:26:10.290Z,63
2023-05-05T06:27:23.250Z,63
2023-05-05T06:28:36.227Z,63
2023-05-05T06:29:49.240Z,63
2023-05-05T06:31:02.268Z,63
2023-05-05T06:32:15.258Z,63
2023-05-05T06:33:27.530Z,63
2023-05-05T06:34:41.254Z,63
2023-05-05T06:35:54.416Z,63
2023-05-05T06:37:07.258Z,62
2023-05-05T06:38:20.276Z,62
2023-05-05T06:39:33.202Z,62
2023-05-05T06:40:46.298Z,62
2023-05-05T06:41:59.188Z,62
2023-05-05T06:43:12.213Z,61
2023-05-05T06:44:25.220Z,60
2023-05-05T06:45:38.808Z,61
2023-05-05T06:46:51.340Z,60
2023-05-05T06:48:04.301Z,60
2023-05-05T06:49:17.308Z,60
2023-05-05T06:50:30.147Z,60
2023-05-05T06:51:44.186Z,60
2023-05-05T06:52:56.179Z,60
2023-05-05T06:54:09.229Z,60
2023-05-05T06:55:22.187Z,59
2023-05-05T06:56:35.225Z,59
2023-05-05T06:57:48.282Z,59
2023-05-05T06:59:01.734Z,59
2023-05-05T07:00:14.255Z,58
2023-05-05T07:01:27.152Z,58
2023-05-05T07:02:40.412Z,58
2023-05-05T07:03:53.214Z,57
2023-05-05T07:05:06.201Z,57
2023-05-05T07:06:19.214Z,58
2023-05-05T07:07:32.160Z,58
2023-05-05T07:08:45.401Z,57
2023-05-05T07:09:58.172Z,57
2023-05-05T07:11:11.213Z,57
2023-05-05T07:12:24.195Z,56
2023-05-05T07:13:37.384Z,56
2023-05-05T07:14:50.427Z,55
2023-05-05T07:16:03.245Z,55
2023-05-05T07:17:16.562Z,54
2023-05-05T07:18:29.185Z,54
2023-05-05T07:19:42.249Z,53
2023-05-05T07:20:55.156Z,53
2023-05-05T07:22:08.212Z,53
2023-05-05T07:23:21.206Z,53
2023-05-05T07:24:34.176Z,53
2023-05-05T07:25:47.205Z,53
2023-05-05T07:27:00.224Z,53
2023-05-05T07:28:13.267Z,52
2023-05-05T07:29:26.298Z,52
2023-05-05T07:30:39.252Z,52
2023-05-05T07:31:52.254Z,53
2023-05-05T07:33:05.258Z,53
2023-05-05T07:34:18.241Z,53
2023-05-05T07:35:31.237Z,53
2023-05-05T07:36:44.251Z,53
2023-05-05T07:37:57.259Z,53
2023-05-05T07:39:10.211Z,53
2023-05-05T07:40:23.202Z,53
2023-05-05T07:41:36.224Z,53
2023-05-05T07:42:49.156Z,51
2023-05-05T07:44:02.160Z,51
2023-05-05T07:45:15.165Z,51
2023-05-05T07:46:28.238Z,51
2023-05-05T07:47:41.220Z,51
2023-05-05T07:48:54.188Z,51
2023-05-05T07:50:07.418Z,51
2023-05-05T07:51:20.197Z,51
2023-05-05T07:52:46.375Z,51
2023-05-05T07:53:46.425Z,51
2023-05-05T07:54:59.193Z,50
2023-05-05T07:56:12.165Z,50
2023-05-05T07:57:25.191Z,50
2023-05-05T07:58:38.264Z,50
2023-05-05T07:59:51.169Z,49
2023-05-05T08:01:04.180Z,49
2023-05-05T08:02:17.050Z,49
2023-05-05T08:03:30.230Z,49
2023-05-05T08:04:43.239Z,49
2023-05-05T08:05:56.168Z,49
2023-05-05T08:07:09.152Z,48
2023-05-05T08:08:22.274Z,49
2023-05-05T08:09:35.265Z,49
2023-05-05T08:10:48.149Z,48
2023-05-05T08:12:01.305Z,48
2023-05-05T08:13:14.173Z,48
2023-05-05T08:14:27.185Z,48
2023-05-05T08:15:40.058Z,48
2023-05-05T08:16:53.173Z,48
2023-05-05T08:18:06.371Z,48
2023-05-05T08:19:29.071Z,48
2023-05-05T08:20:32.184Z,48
2023-05-05T08:21:45.056Z,48
2023-05-05T08:22:58.309Z,48
2023-05-05T08:24:10.907Z,48
2023-05-05T08:25:24.235Z,47
2023-05-05T08:26:37.168Z,47
2023-05-05T08:27:50.256Z,46
2023-05-05T08:29:03.033Z,46
2023-05-05T08:30:16.280Z,46
2023-05-05T08:31:29.254Z,46
2023-05-05T08:32:42.359Z,46
2023-05-05T08:33:55.043Z,46
2023-05-05T08:35:08.496Z,46
2023-05-05T08:36:21.246Z,46
2023-05-05T08:37:34.212Z,46
2023-05-05T08:38:47.261Z,45
2023-05-05T08:40:00.349Z,45
2023-05-05T08:41:13.164Z,45
2023-05-05T08:42:36.821Z,45
2023-05-05T08:43:39.053Z,44
2023-05-05T08:44:52.097Z,44
2023-05-05T08:46:05.226Z,45
2023-05-05T08:47:18.157Z,45
2023-05-05T08:48:31.142Z,45
2023-05-05T08:49:44.163Z,45
2023-05-05T08:51:01.452Z,45
2023-05-05T08:52:10.221Z,45
2023-05-05T08:53:23.155Z,44
2023-05-05T08:54:36.145Z,44
2023-05-05T08:55:49.221Z,44
2023-05-05T08:57:02.045Z,44
2023-05-05T08:58:15.138Z,44
2023-05-05T08:59:28.056Z,44
2023-05-05T09:00:40.552Z,43
2023-05-05T09:01:54.201Z,43
2023-05-05T09:03:07.376Z,43
2023-05-05T09:04:20.215Z,43
2023-05-05T09:05:33.215Z,43
2023-05-05T09:06:46.514Z,43
2023-05-05T09:07:59.157Z,43
2023-05-05T09:09:12.157Z,43
2023-05-05T09:10:25.173Z,43
2023-05-05T09:11:38.195Z,43
2023-05-05T09:12:51.484Z,43
2023-05-05T09:14:04.060Z,42
2023-05-05T09:15:17.167Z,43
2023-05-05T09:16:30.200Z,43
2023-05-05T09:17:43.386Z,42
2023-05-05T09:18:56.479Z,42
2023-05-05T09:20:09.150Z,42
2023-05-05T09:21:22.158Z,42
2023-05-05T09:22:35.078Z,43
2023-05-05T09:23:48.141Z,42
2023-05-05T09:25:01.205Z,42
2023-05-05T09:26:14.128Z,43
2023-05-05T09:27:27.143Z,43
2023-05-05T09:28:40.133Z,43
2023-05-05T09:29:53.136Z,44
2023-05-05T09:31:06.342Z,44
2023-05-05T09:32:19.208Z,43
2023-05-05T09:33:32.184Z,43
2023-05-05T09:34:45.113Z,43
2023-05-05T09:35:58.135Z,43
2023-05-05T09:37:11.138Z,43
2023-05-05T09:38:24.160Z,43
2023-05-05T09:39:37.141Z,43
2023-05-05T09:40:50.155Z,43
2023-05-05T09:42:03.167Z,43
2023-05-05T09:43:16.334Z,44
2023-05-05T09:44:29.124Z,44
2023-05-05T09:45:42.240Z,44
2023-05-05T09:46:55.137Z,44
2023-05-05T09:48:08.157Z,44
2023-05-05T09:49:21.141Z,44
2023-05-05T09:50:34.164Z,44
2023-05-05T09:51:47.143Z,44
2023-05-05T09:53:00.204Z,43
2023-05-05T09:54:13.284Z,43
2023-05-05T09:55:26.128Z,43
2023-05-05T09:56:39.246Z,43
2023-05-05T09:57:52.128Z,43
2023-05-05T09:59:05.286Z,44
2023-05-05T10:00:18.133Z,44
2023-05-05T10:01:31.144Z,44
2023-05-05T10:02:43.991Z,44
2023-05-05T10:03:57.145Z,44
2023-05-05T10:05:10.160Z,44
2023-05-05T10:06:23.137Z,44
2023-05-05T10:07:36.173Z,44
2023-05-05T10:08:49.099Z,44
2023-05-05T10:10:02.141Z,44
2023-05-05T10:11:15.470Z,43
2023-05-05T10:12:28.759Z,43
2023-05-05T10:13:41.129Z,43
2023-05-05T10:14:54.218Z,44
2023-05-05T10:16:07.138Z,44
2023-05-05T10:17:20.128Z,43
2023-05-05T10:18:33.334Z,43
2023-05-05T10:19:46.129Z,43
2023-05-05T10:20:59.115Z,43
2023-05-05T10:22:12.158Z,43
2023-05-05T10:23:25.194Z,43
2023-05-05T10:24:38.137Z,43
2023-05-05T10:25:51.091Z,43
2023-05-05T10:27:04.132Z,43
2023-05-05T10:28:17.153Z,43
2023-05-05T10:29:30.136Z,43
2023-05-05T10:30:43.141Z,43
2023-05-05T10:31:56.131Z,43
2023-05-05T10:33:29.985Z,43
2023-05-05T10:34:22.216Z,43
2023-05-05T10:35:35.104Z,43
2023-05-05T10:36:48.218Z,42
2023-05-05T10:38:01.140Z,42
2023-05-05T10:39:14.164Z,42
2023-05-05T10:40:27.145Z,42
2023-05-05T10:41:40.109Z,42
2023-05-05T10:42:53.127Z,42
2023-05-05T10:44:06.106Z,42
2023-05-05T10:45:19.131Z,42
2023-05-05T10:46:32.194Z,42
2023-05-05T10:47:45.158Z,42
2023-05-05T10:48:58.170Z,42
2023-05-05T10:50:11.219Z,42
2023-05-05T10:51:35.879Z,42
2023-05-05T10:52:37.132Z,41
2023-05-05T10:53:50.156Z,41
2023-05-05T10:55:03.096Z,41
2023-05-05T10:56:16.129Z,41
2023-05-05T10:57:29.273Z,41
2023-05-05T10:58:58.748Z,41
2023-05-05T10:59:55.092Z,41
2023-05-05T11:01:08.125Z,41
2023-05-05T11:02:21.304Z,41
2023-05-05T11:03:34.140Z,41
2023-05-05T11:04:47.097Z,41
2023-05-05T11:06:00.103Z,41
2023-05-05T11:07:16.092Z,41
2023-05-05T11:08:26.337Z,41
2023-05-05T11:09:39.097Z,43
2023-05-05T11:10:51.973Z,43
2023-05-05T11:12:05.176Z,44
2023-05-05T11:13:18.157Z,45
2023-05-05T11:14:31.121Z,45
2023-05-05T11:15:44.698Z,47
2023-05-05T11:16:57.524Z,47
2023-05-05T11:18:10.919Z,47
2023-05-05T11:19:22.951Z,48
2023-05-05T11:20:36.276Z,50
2023-05-05T11:21:49.100Z,51
2023-05-05T11:23:02.140Z,51
2023-05-05T11:24:15.114Z,51
2023-05-05T11:25:28.302Z,51
2023-05-05T11:26:41.150Z,51
2023-05-05T12:05:38.109Z,91
2023-05-05T12:06:50.085Z,91
2023-05-05T12:08:03.095Z,91
2023-05-05T12:09:16.146Z,91
2023-05-05T12:10:28.968Z,91
2023-05-05T12:11:41.950Z,92
2023-05-05T12:12:56.322Z,92
2023-05-05T12:14:08.299Z,92
2023-05-05T12:15:21.108Z,92
2023-05-05T12:16:34.099Z,92
2023-05-05T12:17:47.182Z,92
2023-05-05T12:19:00.378Z,92
2023-05-05T12:20:13.362Z,92
2023-05-05T12:21:26.107Z,92
2023-05-05T12:22:39.268Z,93
2023-05-05T12:23:52.106Z,93
2023-05-05T12:25:05.814Z,93
2023-05-05T12:26:18.095Z,94
2023-05-05T12:27:31.082Z,95
2023-05-05T12:28:44.043Z,95
2023-05-05T12:29:57.257Z,96
2023-05-05T12:31:10.289Z,96
2023-05-05T12:32:23.142Z,97
2023-05-05T12:33:36.158Z,98
2023-05-05T12:34:49.114Z,98
2023-05-05T12:36:02.076Z,98
2023-05-05T12:37:15.089Z,98
2023-05-05T12:38:27.940Z,98
2023-05-05T12:39:41.119Z,98
2023-05-05T12:40:54.073Z,98
2023-05-05T12:42:07.103Z,98
2023-05-05T12:43:20.143Z,97
2023-05-05T12:44:33.131Z,97
2023-05-05T12:45:46.128Z,97
2023-05-05T12:46:59.085Z,97
2023-05-05T12:48:12.090Z,97
2023-05-05T12:49:25.102Z,97
2023-05-05T12:50:38.117Z,96
2023-05-05T12:51:51.083Z,96
2023-05-05T12:53:04.109Z,96
2023-05-05T12:54:17.097Z,96
2023-05-05T12:55:30.078Z,95
2023-05-05T12:56:43.087Z,95
2023-05-05T12:57:56.143Z,95
2023-05-05T12:59:09.153Z,95
2023-05-05T13:00:22.183Z,95
2023-05-05T13:01:35.220Z,95
2023-05-05T13:02:48.194Z,95
2023-05-05T13:04:01.123Z,95
2023-05-05T13:05:14.064Z,95
2023-05-05T13:06:27.080Z,95
2023-05-05T13:07:40.100Z,95
2023-05-05T13:08:53.041Z,95
2023-05-05T13:10:06.091Z,95
2023-05-05T13:11:19.174Z,95
2023-05-05T13:12:32.320Z,95
2023-05-05T13:13:45.088Z,96
2023-05-05T13:14:58.118Z,95
2023-05-05T13:16:11.113Z,95
2023-05-05T13:17:24.117Z,95
2023-05-05T13:18:37.098Z,95
2023-05-05T13:19:50.309Z,95
2023-05-05T13:21:03.092Z,95
2023-05-05T13:22:16.114Z,95
2023-05-05T13:23:29.092Z,95
2023-05-05T13:25:55.089Z,95
2023-05-05T13:27:08.121Z,95
2023-05-05T13:28:21.144Z,95
2023-05-05T13:29:34.070Z,95
2023-05-05T13:30:47.263Z,95
2023-05-05T13:32:00.439Z,95
2023-05-05T13:33:13.090Z,95
2023-05-05T13:34:26.102Z,96
2023-05-05T13:35:39.120Z,96
2023-05-05T13:36:52.105Z,96
2023-05-05T13:38:05.129Z,96
2023-05-05T13:39:17.748Z,95
2023-05-05T13:40:31.076Z,95
2023-05-05T13:41:44.071Z,95
2023-05-05T13:42:57.069Z,95
2023-05-05T13:44:10.075Z,95
2023-05-05T13:45:23.051Z,95
2023-05-05T13:46:36.069Z,95
2023-05-05T13:47:49.059Z,95
2023-05-05T13:49:02.157Z,95
2023-05-05T13:50:15.161Z,95
2023-05-05T13:51:27.964Z,94
2023-05-05T13:52:41.110Z,95
2023-05-05T13:53:54.070Z,95
2023-05-05T13:55:06.984Z,95
2023-05-05T13:56:20.085Z,95
2023-05-05T13:57:33.059Z,95
2023-05-05T13:58:46.070Z,95
2023-05-05T13:59:59.057Z,95
2023-05-05T14:01:12.064Z,94
2023-05-05T14:02:25.202Z,94
2023-05-05T14:03:37.823Z,94
2023-05-05T14:04:50.905Z,94
2023-05-05T14:06:04.046Z,94
2023-05-05T14:07:17.211Z,94
2023-05-05T14:08:30.028Z,94
2023-05-05T14:09:43.061Z,94
2023-05-05T14:10:56.052Z,94
2023-05-05T14:12:08.342Z,94
2023-05-05T14:13:22.063Z,94
2023-05-05T14:14:35.795Z,93
2023-05-05T14:15:48.030Z,93
2023-05-05T14:17:01.148Z,93
2023-05-05T14:18:14.035Z,93
2023-05-05T14:19:27.038Z,93
2023-05-05T14:20:40.075Z,93
2023-05-05T14:21:53.041Z,93
2023-05-05T14:23:05.917Z,93
2023-05-05T14:24:19.038Z,93
2023-05-05T14:25:32.238Z,93
2023-05-05T14:26:45.202Z,94
2023-05-05T14:27:58.197Z,94
2023-05-05T14:29:11.925Z,94
2023-05-05T14:30:23.896Z,94
2023-05-05T14:31:37.124Z,94
2023-05-05T14:32:50.079Z,94
2023-05-05T14:34:03.077Z,94
2023-05-05T14:35:15.914Z,94
2023-05-05T14:36:29.051Z,93
2023-05-05T14:37:42.009Z,93
2023-05-05T14:38:55.093Z,93
2023-05-05T14:40:08.370Z,94
2023-05-05T14:41:21.041Z,94
2023-05-05T14:42:34.034Z,94
2023-05-05T14:43:47.031Z,95
2023-05-05T14:45:00.024Z,95
2023-05-05T14:46:13.005Z,95
2023-05-05T14:47:26.146Z,95
2023-05-05T14:48:39.053Z,96
2023-05-05T14:49:52.035Z,95
2023-05-05T14:51:05.045Z,95
2023-05-05T14:52:18.036Z,96
2023-05-05T14:53:31.673Z,96
2023-05-05T14:54:44.035Z,96
2023-05-05T14:55:57.011Z,96
2023-05-05T14:57:10.039Z,95
2023-05-05T14:58:23.093Z,95
2023-05-05T14:59:36.143Z,95
2023-05-05T15:00:49.154Z,94
2023-05-05T15:02:02.160Z,93
2023-05-05T15:03:15.186Z,92
2023-05-05T15:04:28.051Z,91
2023-05-05T15:05:41.117Z,91
2023-05-05T15:06:54.083Z,91
2023-05-05T15:08:06.923Z,90
2023-05-05T15:09:20.259Z,90
2023-05-05T15:10:33.050Z,91
2023-05-05T15:11:46.074Z,91
2023-05-05T15:12:59.074Z,92
2023-05-05T15:14:11.911Z,92
2023-05-05T15:15:25.240Z,93
2023-05-05T15:16:38.096Z,93
2023-05-05T15:17:51.231Z,93
2023-05-05T15:19:04.043Z,94
2023-05-05T15:20:16.890Z,94
2023-05-05T15:21:30.037Z,94
2023-05-05T15:22:43.085Z,95
2023-05-05T15:23:56.086Z,95
2023-05-05T15:25:09.347Z,95
2023-05-05T15:26:22.118Z,95
2023-05-05T15:27:35.124Z,96
2023-05-05T15:28:51.218Z,96
2023-05-05T15:30:01.031Z,96
2023-05-05T15:31:14.174Z,96
2023-05-05T15:32:26.916Z,97
2023-05-05T15:33:40.063Z,97
2023-05-05T15:34:53.091Z,97
2023-05-05T15:36:06.113Z,97
2023-05-05T15:37:19.237Z,97
2023-05-05T15:38:32.063Z,97
2023-05-05T15:39:45.146Z,97
2023-05-05T15:40:58.116Z,97
2023-05-05T15:42:10.903Z,97
2023-05-05T15:43:24.023Z,98
2023-05-05T15:44:37.296Z,98
2023-05-05T15:45:50.014Z,98
2023-05-05T15:47:03.041Z,98
2023-05-05T15:48:16.031Z,98
2023-05-05T15:49:28.702Z,98
2023-05-05T15:50:42.083Z,98
2023-05-05T15:51:55.090Z,98
2023-05-05T15:53:07.914Z,98
2023-05-05T15:54:21.077Z,98
2023-05-05T15:55:34.255Z,98
2023-05-05T15:56:47.007Z,98
2023-05-05T15:58:00.413Z,98
2023-05-05T15:59:13.060Z,98
2023-05-05T16:00:26.424Z,99
2023-05-05T16:01:39.440Z,99
2023-05-05T16:02:52.104Z,98
2023-05-05T16:04:04.917Z,98
2023-05-05T16:05:18.523Z,98
2023-05-05T16:06:31.357Z,99
2023-05-05T16:07:44.228Z,99
2023-05-05T16:08:57.013Z,98
2023-05-05T16:10:10.689Z,98
2023-05-05T16:11:23.057Z,99
2023-05-05T16:12:36.123Z,99
2023-05-05T16:13:49.095Z,99
2023-05-05T16:15:02.063Z,99
2023-05-05T16:16:15.094Z,99
2023-05-05T16:17:28.062Z,99
2023-05-05T16:18:41.069Z,99
2023-05-05T16:19:54.051Z,99
2023-05-05T16:21:07.057Z,99
2023-05-05T16:22:19.849Z,99
2023-05-05T16:23:33.057Z,99
2023-05-05T16:24:46.244Z,99
2023-05-05T16:25:59.095Z,99
2023-05-05T16:27:12.030Z,99
2023-05-05T16:28:25.043Z,99
2023-05-05T16:29:38.684Z,99
2023-05-05T16:30:51.350Z,99
2023-05-05T16:32:04.071Z,99
2023-05-05T16:33:17.019Z,99
2023-05-05T16:34:30.019Z,99
2023-05-05T16:35:43.196Z,99
2023-05-05T16:36:56.014Z,99
2023-05-05T16:38:09.019Z,99
2023-05-05T16:39:21.384Z,99
2023-05-05T16:40:35.033Z,99
2023-05-05T16:41:48.361Z,99
2023-05-05T16:43:01.022Z,99
2023-05-05T16:44:14.021Z,99
2023-05-05T16:45:27.106Z,99
2023-05-05T16:46:40.122Z,99
2023-05-05T16:47:53.193Z,99
2023-05-05T16:49:06.143Z,99
2023-05-05T16:50:19.162Z,99
2023-05-05T16:51:32.096Z,99
2023-05-05T16:52:45.268Z,99
2023-05-05T16:53:58.097Z,99
2023-05-05T16:55:11.876Z,99
2023-05-05T16:56:24.223Z,99
2023-05-05T16:57:37.003Z,99
2023-05-05T16:58:50.148Z,99
2023-05-05T17:00:03.040Z,99
2023-05-05T17:01:16.046Z,99
2023-05-05T17:02:29.065Z,99
2023-05-05T17:03:42.017Z,99
2023-05-05T17:04:55.139Z,99
2023-05-05T17:06:08.072Z,99
2023-05-05T17:07:21.030Z,99
2023-05-05T17:08:34.052Z,99
2023-05-05T17:09:47.085Z,99
2023-05-05T17:11:00.196Z,99
2023-05-05T17:12:13.035Z,99
2023-05-05T17:13:25.999Z,99
2023-05-05T17:14:39.049Z,99
2023-05-05T17:15:52.065Z,99
2023-05-05T17:17:05.132Z,99
2023-05-05T17:18:18.213Z,99
2023-05-05T17:19:31.039Z,99
2023-05-05T17:20:44.707Z,99
2023-05-05T17:21:56.887Z,99
2023-05-05T17:23:10.072Z,99
2023-05-05T17:24:23.034Z,99
2023-05-05T17:25:36.110Z,99
2023-05-05T17:26:49.027Z,99
2023-05-05T17:28:02.212Z,99
2023-05-05T17:29:15.098Z,99
2023-05-05T17:30:28.057Z,99
2023-05-05T17:31:41.051Z,99
2023-05-05T17:32:54.056Z,99
2023-05-05T17:34:07.166Z,99
2023-05-05T17:35:20.105Z,99
2023-05-05T17:36:33.008Z,99
2023-05-05T17:37:46.028Z,99
2023-05-05T17:38:58.976Z,99
2023-05-05T17:40:12.035Z,99
2023-05-05T17:41:25.163Z,99
2023-05-05T17:42:38.043Z,99
2023-05-05T17:43:51.081Z,99
2023-05-05T17:45:04.094Z,99
2023-05-05T17:46:17.092Z,99
2023-05-05T17:47:30.058Z,99
2023-05-05T17:48:43.128Z,99
2023-05-05T17:49:56.238Z,99
2023-05-05T17:51:09.269Z,99
2023-05-05T17:52:22.022Z,99
2023-05-05T17:53:35.035Z,99
2023-05-05T17:54:48.080Z,99
2023-05-05T17:56:01.032Z,99
2023-05-05T17:57:14.029Z,99
2023-05-05T17:58:27.030Z,99
2023-05-05T17:59:40.078Z,99